createdAt,value
2022-09-11T00:00:36.467Z,100404.31
2022-09-11T00:03:40.804Z,100395.84
2022-09-11T00:06:43.813Z,100395.69
2022-09-11T00:09:47.184Z,100394.72
2022-09-11T00:12:52.085Z,100396.84
2022-09-11T00:15:55.157Z,100392.69
2022-09-11T00:19:03.138Z,100388.66
2022-09-11T00:22:06.566Z,100392.41
2022-09-11T00:25:10.280Z,100393.50
2022-09-11T00:28:16.912Z,100391.59
2022-09-11T00:31:23.728Z,100395.06
2022-09-11T00:34:26.788Z,100386.09
2022-09-11T00:37:29.722Z,100375.81
2022-09-11T00:40:32.826Z,100371.78
2022-09-11T00:47:10.008Z,100356.47
2022-09-11T00:50:19.589Z,100365.66
2022-09-11T00:53:26.431Z,100361.66
2022-09-11T00:56:35.381Z,100358.06
2022-09-11T00:59:40.738Z,100358.19
2022-09-11T01:02:50.545Z,100365.78
2022-09-11T01:05:55.370Z,100365.63
2022-09-11T01:09:01.704Z,100360.38
2022-09-11T01:12:11.522Z,100362.88
2022-09-11T01:15:21.820Z,100364.50
2022-09-11T01:18:31.691Z,100363.69
2022-09-11T01:21:54.416Z,100368.63
2022-09-11T01:25:10.636Z,100372.22
2022-09-11T01:28:17.673Z,100369.44
2022-09-11T01:31:25.798Z,100384.16
2022-09-11T01:34:36.582Z,100376.44
2022-09-11T01:37:51.067Z,100377.31
2022-09-11T01:40:57.531Z,100375.94
2022-09-11T01:44:07.238Z,100366.13
2022-09-11T01:47:12.512Z,100370.91
2022-09-11T01:50:19.186Z,100370.78
2022-09-11T01:53:27.516Z,100370.41
2022-09-11T01:56:35.374Z,100379.38
2022-09-11T01:59:44.624Z,100382.16
2022-09-11T02:02:50.806Z,100380.41
2022-09-11T02:05:58.922Z,100379.56
2022-09-11T02:09:07.931Z,100373.50
2022-09-11T02:12:16.782Z,100369.38
2022-09-11T02:15:21.926Z,100373.53
2022-09-11T02:18:36.673Z,100373.03
2022-09-11T02:21:40.606Z,100376.06
2022-09-11T02:24:44.263Z,100376.66
2022-09-11T02:27:47.416Z,100373.34
2022-09-11T02:30:52.055Z,100370.59
2022-09-11T02:33:55.005Z,100369.88
2022-09-11T02:37:12.943Z,100375.44
2022-09-11T02:40:47.645Z,100384.53
2022-09-11T02:44:05.553Z,100379.97
2022-09-11T02:47:24.045Z,100392.72
2022-09-11T02:50:40.263Z,100394.34
2022-09-11T02:53:55.826Z,100402.66
2022-09-11T02:57:07.120Z,100404.03
2022-09-11T03:00:12.511Z,100402.78
2022-09-11T03:03:17.872Z,100401.13
2022-09-11T03:06:23.622Z,100411.22
2022-09-11T03:09:26.615Z,100397.97
2022-09-11T03:12:35.692Z,100396.44
2022-09-11T03:15:38.842Z,100398.25
2022-09-11T03:18:43.192Z,100394.13
2022-09-11T03:21:46.482Z,100396.03
2022-09-11T03:24:50.918Z,100407.09
2022-09-11T03:27:54.390Z,100399.13
2022-09-11T03:30:57.592Z,100396.66
2022-09-11T03:34:03.293Z,100395.13
2022-09-11T03:37:06.404Z,100392.50
2022-09-11T03:40:10.628Z,100406.00
2022-09-11T03:43:14.551Z,100411.22
2022-09-11T03:46:17.773Z,100407.41
2022-09-11T03:49:22.161Z,100406.00
2022-09-11T03:52:25.892Z,100412.50
2022-09-11T03:55:29.495Z,100426.69
2022-09-11T03:58:32.536Z,100427.22
2022-09-11T04:01:36.346Z,100428.63
2022-09-11T04:04:41.282Z,100428.06
2022-09-11T04:07:44.272Z,100432.31
2022-09-11T04:10:47.372Z,100431.38
2022-09-11T04:13:51.858Z,100438.81
2022-09-11T04:16:54.951Z,100446.75
2022-09-11T04:19:59.391Z,100440.00
2022-09-11T04:23:02.956Z,100428.31
2022-09-11T04:26:15.763Z,100422.53
2022-09-11T04:29:19.728Z,100426.78
2022-09-11T04:32:23.147Z,100423.66
2022-09-11T04:35:28.284Z,100429.31
2022-09-11T04:38:34.396Z,100428.59
2022-09-11T04:41:37.478Z,100424.47
2022-09-11T04:44:40.867Z,100425.59
2022-09-11T04:47:44.044Z,100420.88
2022-09-11T04:50:50.537Z,100419.94
2022-09-11T04:54:01.163Z,100428.06
2022-09-11T04:57:10.944Z,100428.47
2022-09-11T05:00:16.475Z,100423.38
2022-09-11T05:03:20.913Z,100417.31
2022-09-11T05:06:25.462Z,100411.78
2022-09-11T05:09:29.802Z,100403.50
2022-09-11T05:12:34.469Z,100405.72
2022-09-11T05:15:38.491Z,100402.13
2022-09-11T05:18:45.160Z,100411.22
2022-09-11T05:21:49.504Z,100409.84
2022-09-11T05:24:52.624Z,100411.09
2022-09-11T05:27:55.953Z,100417.44
2022-09-11T05:31:00.322Z,100423.22
2022-09-11T05:34:04.137Z,100428.91
2022-09-11T05:37:08.653Z,100427.25
2022-09-11T05:40:17.375Z,100426.81
2022-09-11T05:43:20.753Z,100433.31
2022-09-11T05:46:25.979Z,100447.94
2022-09-11T05:49:33.027Z,100458.94
2022-09-11T05:52:39.076Z,100468.59
2022-09-11T05:55:43.410Z,100482.28
2022-09-11T05:58:48.536Z,100486.69
2022-09-11T06:01:52.687Z,100498.38
2022-09-11T06:05:10.839Z,100504.75
2022-09-11T06:08:15.843Z,100517.03
2022-09-11T06:11:21.126Z,100516.63
2022-09-11T06:14:25.198Z,100517.28
2022-09-11T06:17:28.360Z,100513.16
2022-09-11T06:20:31.564Z,100514.94
2022-09-11T06:23:37.155Z,100518.25
2022-09-11T06:26:40.855Z,100527.88
2022-09-11T06:29:45.025Z,100527.59
2022-09-11T06:32:50.095Z,100536.28
2022-09-11T06:36:04.554Z,100542.38
2022-09-11T06:39:09.106Z,100553.69
2022-09-11T06:42:12.408Z,100570.09
2022-09-11T06:45:15.607Z,100572.28
2022-09-11T06:48:19.899Z,100579.75
2022-09-11T06:51:24.454Z,100588.31
2022-09-11T06:54:30.253Z,100598.81
2022-09-11T06:57:38.714Z,100597.72
2022-09-11T07:00:46.604Z,100590.50
2022-09-11T07:03:52.906Z,100591.59
2022-09-11T07:06:56.631Z,100609.28
2022-09-11T07:10:05.095Z,100613.16
2022-09-11T07:13:09.624Z,100609.81
2022-09-11T07:16:14.434Z,100618.81
2022-09-11T07:19:24.857Z,100627.53
2022-09-11T07:22:28.049Z,100638.69
2022-09-11T07:25:32.406Z,100645.22
2022-09-11T07:28:37.596Z,100640.66
2022-09-11T07:31:42.717Z,100630.56
2022-09-11T07:34:48.331Z,100621.66
2022-09-11T07:37:51.996Z,100632.63
2022-09-11T07:41:00.757Z,100640.59
2022-09-11T07:44:06.023Z,100648.59
2022-09-11T07:47:09.635Z,100666.41
2022-09-11T07:50:18.512Z,100672.91
2022-09-11T07:53:21.838Z,100688.13
2022-09-11T07:56:28.016Z,100708.19
2022-09-11T07:59:31.894Z,100709.41
2022-09-11T08:02:37.037Z,100717.41
2022-09-11T08:05:40.923Z,100716.38
2022-09-11T08:08:47.912Z,100728.88
2022-09-11T08:11:53.351Z,100730.09
2022-09-11T08:14:56.761Z,100752.75
2022-09-11T08:18:00.073Z,100773.00
2022-09-11T08:21:08.563Z,100789.59
2022-09-11T08:24:18.199Z,100801.25
2022-09-11T08:27:24.516Z,100809.84
2022-09-11T08:30:27.766Z,100801.13
2022-09-11T08:33:31.239Z,100817.22
2022-09-11T08:36:36.772Z,100828.50
2022-09-11T08:39:40.202Z,100823.16
2022-09-11T08:42:47.947Z,100822.47
2022-09-11T08:45:56.218Z,100820.72
2022-09-11T08:49:07.973Z,100828.22
2022-09-11T08:52:15.387Z,100838.00
2022-09-11T08:55:32.189Z,100845.31
2022-09-11T08:58:46.548Z,100850.78
2022-09-11T09:01:58.779Z,100845.00
2022-09-11T09:05:16.184Z,100838.63
2022-09-11T09:08:44.739Z,100842.22
2022-09-11T09:11:57.546Z,100846.69
2022-09-11T09:15:21.180Z,100855.94
2022-09-11T09:18:32.674Z,100854.34
2022-09-11T09:21:43.741Z,100853.75
2022-09-11T09:24:50.764Z,100865.09
2022-09-11T09:27:57.950Z,100861.75
2022-09-11T09:31:08.193Z,100847.81
2022-09-11T09:34:19.784Z,100852.06
2022-09-11T09:37:26.263Z,100858.47
2022-09-11T09:40:33.742Z,100887.72
2022-09-11T09:43:51.195Z,100893.56
2022-09-11T09:46:57.034Z,100920.75
2022-09-11T09:50:19.391Z,100911.19
2022-09-11T09:53:32.771Z,100922.16
2022-09-11T09:56:39.057Z,100914.63
2022-09-11T09:59:47.687Z,100921.03
2022-09-11T10:02:56.183Z,100923.81
2022-09-11T10:06:00.210Z,100926.22
2022-09-11T10:09:03.621Z,100932.47
2022-09-11T10:12:21.055Z,100921.50
2022-09-11T10:15:25.646Z,100920.66
2022-09-11T10:18:45.198Z,100937.25
2022-09-11T10:21:48.527Z,100961.47
2022-09-11T10:25:01.722Z,100957.16
2022-09-11T10:28:09.035Z,100956.25
2022-09-11T10:31:16.379Z,100953.63
2022-09-11T10:34:23.380Z,100978.66
2022-09-11T10:37:30.572Z,101036.28
2022-09-11T10:40:33.732Z,101024.09
2022-09-11T10:43:46.652Z,101066.75
2022-09-11T10:47:06.484Z,101086.97
2022-09-11T10:50:25.255Z,101077.41
2022-09-11T10:53:29.174Z,101054.59
2022-09-11T10:56:35.738Z,101053.72
2022-09-11T10:59:46.274Z,101048.44
2022-09-11T11:02:52.558Z,101037.75
2022-09-11T11:06:15.528Z,101026.59
2022-09-11T11:09:38.805Z,101038.88
2022-09-11T11:12:57.912Z,101030.50
2022-09-11T11:16:13.833Z,101030.81
2022-09-11T11:19:38.099Z,101028.38
2022-09-11T11:23:05.842Z,101042.13
2022-09-11T11:26:27.655Z,101044.22
2022-09-11T11:29:54.165Z,101008.84
2022-09-11T11:33:26.522Z,101019.06
2022-09-11T11:36:38.540Z,101043.41
2022-09-11T11:39:54.917Z,101059.94
2022-09-11T11:43:05.152Z,101071.25
2022-09-11T11:46:17.859Z,101103.31
2022-09-11T11:49:31.429Z,101085.03
2022-09-11T11:52:44.391Z,101104.31
2022-09-11T11:56:01.207Z,101107.69
2022-09-11T11:59:12.133Z,101128.06
2022-09-11T12:02:21.951Z,101106.00
2022-09-11T12:05:28.908Z,101115.59
2022-09-11T12:08:32.562Z,101120.19
2022-09-11T12:11:39.118Z,101102.72
2022-09-11T12:14:50.640Z,101130.28
2022-09-11T12:18:02.703Z,101122.69
2022-09-11T12:22:05.562Z,101116.41
2022-09-11T12:25:53.580Z,101115.59
2022-09-11T12:29:51.619Z,101111.31
2022-09-11T12:32:56.458Z,101112.81
2022-09-11T12:36:00.461Z,101117.25
2022-09-11T12:39:18.445Z,101123.63
2022-09-11T12:42:56.524Z,101107.63
2022-09-11T12:45:59.720Z,101091.03
2022-09-11T12:49:22.311Z,101083.50
2022-09-11T12:52:37.546Z,101075.97
2022-09-11T12:55:44.494Z,101048.84
2022-09-11T12:58:56.767Z,101052.66
2022-09-11T13:02:01.694Z,101051.53
2022-09-11T13:05:07.579Z,101032.03
2022-09-11T13:08:22.530Z,101045.78
2022-09-11T13:11:43.515Z,101064.25
2022-09-11T13:14:51.978Z,101084.44
2022-09-11T13:17:55.090Z,101085.56
2022-09-11T13:21:14.885Z,101082.38
2022-09-11T13:24:26.343Z,101073.47
2022-09-11T13:27:29.612Z,101085.19
2022-09-11T13:30:35.021Z,101079.09
2022-09-11T13:33:38.200Z,101087.03
2022-09-11T13:36:41.805Z,101088.50
2022-09-11T13:39:47.112Z,101078.50
2022-09-11T13:42:50.688Z,101088.41
2022-09-11T13:46:21.089Z,101089.44
2022-09-11T13:49:35.113Z,101096.56
2022-09-11T13:52:38.371Z,101088.72
2022-09-11T13:55:46.827Z,101102.25
2022-09-11T13:58:53.498Z,101104.06
2022-09-11T14:02:00.809Z,101099.84
2022-09-11T14:05:13.780Z,101098.56
2022-09-11T14:08:27.502Z,101126.34
2022-09-11T14:11:33.485Z,101130.69
2022-09-11T14:14:36.823Z,101125.03
2022-09-11T14:17:43.023Z,101134.22
2022-09-11T14:20:49.845Z,101127.97
2022-09-11T14:23:54.949Z,101132.53
2022-09-11T14:26:58.234Z,101133.66
2022-09-11T14:30:01.649Z,101130.06
2022-09-11T14:33:25.375Z,101132.09
2022-09-11T14:36:28.335Z,101130.47
2022-09-11T14:39:36.437Z,101132.31
2022-09-11T14:42:42.687Z,101132.25
2022-09-11T14:45:46.044Z,101134.91
2022-09-11T14:48:51.378Z,101126.47
2022-09-11T14:51:58.479Z,101128.09
2022-09-11T14:55:01.456Z,101137.47
2022-09-11T14:58:04.771Z,101124.88
2022-09-11T15:01:07.772Z,101133.03
2022-09-11T15:04:19.904Z,101125.31
2022-09-11T15:07:24.200Z,101127.34
2022-09-11T15:10:27.152Z,101118.13
2022-09-11T15:13:30.372Z,101121.09
2022-09-11T15:16:33.729Z,101116.94
2022-09-11T15:19:39.010Z,101115.13
2022-09-11T15:22:42.024Z,101105.13
2022-09-11T15:25:45.058Z,101087.16
2022-09-11T15:28:50.779Z,101040.63
2022-09-11T15:31:54.342Z,100987.66
2022-09-11T15:34:58.966Z,100928.72
2022-09-11T15:38:04.393Z,100924.28
2022-09-11T15:41:09.949Z,100904.13
2022-09-11T15:44:19.986Z,100905.13
2022-09-11T15:47:23.145Z,100914.47
2022-09-11T15:50:30.028Z,100903.72
2022-09-11T15:53:33.610Z,100891.94
2022-09-11T15:56:36.584Z,100883.66
2022-09-11T15:59:40.820Z,100902.16
2022-09-11T16:02:43.768Z,100900.97
2022-09-11T16:05:48.035Z,100879.75
2022-09-11T16:08:51.997Z,100883.44
2022-09-11T16:11:56.920Z,100862.69
2022-09-11T16:14:59.825Z,100863.59
2022-09-11T16:18:05.520Z,100850.59
2022-09-11T16:21:14.866Z,100843.97
2022-09-11T16:24:20.624Z,100838.69
2022-09-11T16:27:24.407Z,100839.34
2022-09-11T16:30:45.849Z,100850.31
2022-09-11T16:33:56.878Z,100851.41
2022-09-11T16:37:01.532Z,100861.34
2022-09-11T16:40:05.273Z,100856.06
2022-09-11T16:43:08.659Z,100854.75
2022-09-11T16:46:15.361Z,100855.88
2022-09-11T16:49:20.359Z,100853.19
2022-09-11T16:52:24.652Z,100842.97
2022-09-11T16:55:28.102Z,100838.16
2022-09-11T16:58:31.052Z,100826.66
2022-09-11T17:01:34.220Z,100836.50
2022-09-11T17:04:37.286Z,100828.94
2022-09-11T17:07:41.885Z,100835.16
2022-09-11T17:10:47.028Z,100848.66
2022-09-11T17:13:50.490Z,100830.28
2022-09-11T17:16:53.909Z,100842.81
2022-09-11T17:19:57.667Z,100845.41
2022-09-11T17:23:02.358Z,100849.63
2022-09-11T17:26:08.449Z,100841.25
2022-09-11T17:29:11.419Z,100840.13
2022-09-11T17:32:31.171Z,100840.44
2022-09-11T17:35:37.770Z,100839.06
2022-09-11T17:38:42.160Z,100842.97
2022-09-11T17:41:45.159Z,100858.69
2022-09-11T17:44:48.909Z,100860.56
2022-09-11T17:47:52.657Z,100856.56
2022-09-11T17:51:02.411Z,100865.03
2022-09-11T17:54:06.828Z,100868.75
2022-09-11T17:57:10.101Z,100871.91
2022-09-11T18:00:14.936Z,100864.56
2022-09-11T18:03:22.727Z,100862.09
2022-09-11T18:06:28.253Z,100865.88
2022-09-11T18:09:32.664Z,100864.13
2022-09-11T18:12:36.139Z,100858.47
2022-09-11T18:15:39.071Z,100862.94
2022-09-11T18:18:43.205Z,100857.03
2022-09-11T18:21:49.990Z,100853.94
2022-09-11T18:24:54.711Z,100858.59
2022-09-11T18:27:57.675Z,100855.56
2022-09-11T18:31:05.658Z,100870.69
2022-09-11T18:34:12.921Z,100863.53
2022-09-11T18:37:17.375Z,100851.22
2022-09-11T18:40:22.277Z,100855.84
2022-09-11T18:43:25.333Z,100866.53
2022-09-11T18:46:29.116Z,100855.88
2022-09-11T18:49:32.061Z,100859.34
2022-09-11T18:52:35.006Z,100852.56
2022-09-11T18:55:39.753Z,100855.19
2022-09-11T18:58:42.906Z,100849.00
2022-09-11T19:01:45.909Z,100862.00
2022-09-11T19:04:49.642Z,100857.97
2022-09-11T19:07:52.937Z,100876.41
2022-09-11T19:11:00.587Z,100879.47
2022-09-11T19:14:05.996Z,100876.03
2022-09-11T19:17:09.092Z,100868.56
2022-09-11T19:20:12.596Z,100869.22
2022-09-11T19:23:15.885Z,100868.56
2022-09-11T19:26:22.791Z,100870.09
2022-09-11T19:29:25.727Z,100868.44
2022-09-11T19:32:28.760Z,100870.22
2022-09-11T19:35:32.002Z,100875.19
2022-09-11T19:38:37.357Z,100886.97
2022-09-11T19:41:41.654Z,100880.59
2022-09-11T19:44:45.485Z,100889.59
2022-09-11T19:47:48.632Z,100886.38
2022-09-11T19:50:51.595Z,100887.63
2022-09-11T19:53:57.883Z,100879.31
2022-09-11T19:57:03.311Z,100887.06
2022-09-11T20:00:08.354Z,100886.50
2022-09-11T20:03:11.497Z,100890.91
2022-09-11T20:06:18.018Z,100884.25
2022-09-11T20:09:31.037Z,100891.56
2022-09-11T20:12:37.186Z,100881.22
2022-09-11T20:15:42.130Z,100878.69
2022-09-11T20:18:45.619Z,100879.00
2022-09-11T20:21:49.217Z,100872.47
2022-09-11T20:24:52.357Z,100870.13
2022-09-11T20:27:56.795Z,100880.63
2022-09-11T20:31:00.498Z,100880.31
2022-09-11T20:34:03.815Z,100879.75
2022-09-11T20:37:10.147Z,100879.75
2022-09-11T20:40:13.422Z,100880.03
2022-09-11T20:43:17.728Z,100876.69
2022-09-11T20:46:20.895Z,100875.03
2022-09-11T20:49:24.015Z,100875.56
2022-09-11T20:52:27.350Z,100869.75
2022-09-11T20:55:30.343Z,100870.84
2022-09-11T20:58:35.487Z,100865.88
2022-09-11T21:01:38.583Z,100873.19
2022-09-11T21:04:41.544Z,100879.50
2022-09-11T21:07:44.526Z,100863.78
2022-09-11T21:10:47.487Z,100878.63
2022-09-11T21:13:51.962Z,100874.25
2022-09-11T21:16:54.903Z,100871.19
2022-09-11T21:19:57.971Z,100864.69
2022-09-11T21:23:00.943Z,100862.22
2022-09-11T21:26:08.718Z,100871.72
2022-09-11T21:29:14.937Z,100863.03
2022-09-11T21:32:18.114Z,100861.25
2022-09-11T21:35:21.222Z,100869.94
2022-09-11T21:38:28.501Z,100858.91
2022-09-11T21:41:31.691Z,100857.97
2022-09-11T21:44:35.949Z,100854.53
2022-09-11T21:47:38.888Z,100852.03
2022-09-11T21:50:42.377Z,100851.78
2022-09-11T21:53:48.476Z,100850.66
2022-09-11T21:56:51.403Z,100844.03
2022-09-11T21:59:55.982Z,100850.22
2022-09-11T22:02:59.242Z,100853.28
2022-09-11T22:06:07.132Z,100856.28
2022-09-11T22:09:10.144Z,100843.72
2022-09-11T22:12:13.310Z,100844.28
2022-09-11T22:15:18.095Z,100851.59
2022-09-11T22:18:21.363Z,100842.78
2022-09-11T22:21:25.101Z,100834.78
2022-09-11T22:24:28.232Z,100835.47
2022-09-11T22:27:31.334Z,100835.75
2022-09-11T22:30:35.684Z,100832.97
2022-09-11T22:33:40.965Z,100834.78
2022-09-11T22:36:43.990Z,100829.00
2022-09-11T22:39:47.423Z,100825.56
2022-09-11T22:42:50.482Z,100827.22
2022-09-11T22:45:54.934Z,100818.81
2022-09-11T22:48:57.954Z,100822.56
2022-09-11T22:52:00.944Z,100824.34
2022-09-11T22:55:04.496Z,100821.16
2022-09-11T22:58:07.673Z,100822.41
2022-09-11T23:01:16.758Z,100822.66
2022-09-11T23:04:22.635Z,100819.06
2022-09-11T23:07:24.718Z,100817.28
2022-09-11T23:10:30.453Z,100829.25
2022-09-11T23:13:34.498Z,100819.19
2022-09-11T23:16:38.895Z,100820.28
2022-09-11T23:19:41.897Z,100829.34
2022-09-11T23:22:44.841Z,100836.78
2022-09-11T23:25:48.016Z,100841.56
2022-09-11T23:28:51.682Z,100846.81
2022-09-11T23:31:58.176Z,100853.84
2022-09-11T23:35:01.136Z,100851.97
2022-09-11T23:38:04.173Z,100855.13
2022-09-11T23:41:07.597Z,100854.66
2022-09-11T23:44:11.555Z,100856.91
2022-09-11T23:47:15.975Z,100850.75
2022-09-11T23:50:19.438Z,100853.59
2022-09-11T23:53:23.779Z,100855.66
2022-09-11T23:56:27.098Z,100843.91
2022-09-11T23:59:30.080Z,100863.38
